createdAt,value
2022-09-23T00:04:15.658Z,87.5
2022-09-23T00:09:21.869Z,87.5
2022-09-23T00:14:28.078Z,87.5
2022-09-23T00:19:34.285Z,87.5
2022-09-23T00:24:40.497Z,87.5
2022-09-23T00:29:46.701Z,88.0
2022-09-23T00:34:52.908Z,88.0
2022-09-23T00:39:59.121Z,88.5
2022-09-23T00:45:05.331Z,88.5
2022-09-23T00:50:11.533Z,88.5
2022-09-23T00:55:17.750Z,88.5
2022-09-23T01:00:23.961Z,88.5
2022-09-23T01:05:30.170Z,88.5
2022-09-23T01:10:36.369Z,88.5
2022-09-23T01:15:42.577Z,89.0
2022-09-23T01:20:47.815Z,89.0
2022-09-23T01:25:54.018Z,89.0
2022-09-23T01:30:59.336Z,89.0
2022-09-23T01:36:05.460Z,89.0
2022-09-23T01:41:11.677Z,89.0
2022-09-23T01:46:17.881Z,89.0
2022-09-23T01:51:24.086Z,89.0
2022-09-23T01:56:30.304Z,89.0
2022-09-23T02:01:36.554Z,89.0
2022-09-23T02:06:42.735Z,89.0
2022-09-23T02:11:48.921Z,89.0
2022-09-23T02:16:55.194Z,89.0
2022-09-23T02:22:01.334Z,89.0
2022-09-23T02:27:07.547Z,89.5
2022-09-23T02:32:13.870Z,89.5
2022-09-23T02:37:19.978Z,89.5
2022-09-23T02:42:26.168Z,89.5
2022-09-23T02:47:32.374Z,89.5
2022-09-23T02:52:38.583Z,89.5
2022-09-23T02:57:44.790Z,90.0
2022-09-23T03:02:51.002Z,90.0
2022-09-23T03:07:57.210Z,90.0
2022-09-23T03:13:03.424Z,90.0
2022-09-23T03:18:08.648Z,90.0
2022-09-23T03:23:14.861Z,90.0
2022-09-23T03:28:20.104Z,90.0
2022-09-23T03:33:28.640Z,90.0
2022-09-23T03:38:32.508Z,90.0
2022-09-23T03:43:39.053Z,90.0
2022-09-23T03:48:44.928Z,90.0
2022-09-23T03:53:51.132Z,90.0
2022-09-23T03:58:57.337Z,90.0
2022-09-23T04:04:03.552Z,90.0
2022-09-23T04:09:09.798Z,90.0
2022-09-23T04:14:15.962Z,90.0
2022-09-23T04:19:22.173Z,90.0
2022-09-23T04:24:28.376Z,90.0
2022-09-23T04:29:34.589Z,90.5
2022-09-23T04:34:40.806Z,90.5
2022-09-23T04:39:47.003Z,90.5
2022-09-23T04:44:53.205Z,90.5
2022-09-23T04:50:00.033Z,90.5
2022-09-23T04:55:09.203Z,90.5
2022-09-23T05:00:11.833Z,90.5
2022-09-23T05:05:18.042Z,90.5
2022-09-23T05:10:24.248Z,90.5
2022-09-23T05:15:29.488Z,91.0
2022-09-23T05:20:35.699Z,91.0
2022-09-23T05:25:41.909Z,91.0
2022-09-23T05:30:48.109Z,91.0
2022-09-23T05:35:54.320Z,91.0
2022-09-23T05:40:59.550Z,91.0
2022-09-23T05:46:08.225Z,91.0
2022-09-23T05:51:11.967Z,91.0
2022-09-23T05:56:18.182Z,91.5
2022-09-23T06:01:24.407Z,91.5
2022-09-23T06:06:30.589Z,91.5
2022-09-23T06:11:36.802Z,92.0
2022-09-23T06:16:43.014Z,92.0
2022-09-23T06:21:49.217Z,92.0
2022-09-23T06:26:55.421Z,92.0
2022-09-23T06:32:01.799Z,92.0
2022-09-23T06:37:16.422Z,92.0
2022-09-23T06:42:14.045Z,92.5
2022-09-23T06:47:20.255Z,92.5
2022-09-23T06:52:26.461Z,92.5
2022-09-23T06:57:32.673Z,92.5
2022-09-23T07:02:39.046Z,92.5
2022-09-23T07:07:45.095Z,92.5
2022-09-23T07:12:51.293Z,92.5
2022-09-23T07:17:57.500Z,92.5
2022-09-23T07:23:03.718Z,92.5
2022-09-23T07:28:08.947Z,92.5
2022-09-23T07:33:29.732Z,92.5
2022-09-23T07:38:20.392Z,92.5
2022-09-23T07:43:26.598Z,92.5
2022-09-23T07:48:34.852Z,92.5
2022-09-23T07:53:39.015Z,92.5
2022-09-23T07:58:45.221Z,92.5
2022-09-23T08:03:51.431Z,92.0
2022-09-23T08:08:57.675Z,92.0
2022-09-23T08:14:03.846Z,92.0
2022-09-23T08:19:10.055Z,92.0
2022-09-23T08:24:16.261Z,92.0
2022-09-23T08:29:22.489Z,91.5
2022-09-23T08:34:28.682Z,91.5
2022-09-23T08:39:34.896Z,91.0
2022-09-23T08:44:41.094Z,91.0
2022-09-23T08:49:47.324Z,90.5
2022-09-23T08:54:55.440Z,90.0
2022-09-23T08:59:59.735Z,89.5
2022-09-23T09:05:05.943Z,89.0
2022-09-23T09:10:12.156Z,88.5
2022-09-23T09:15:18.375Z,88.5
2022-09-23T09:20:24.589Z,88.0
2022-09-23T09:25:33.497Z,87.5
2022-09-23T09:30:36.153Z,87.5
2022-09-23T09:35:41.292Z,86.5
2022-09-23T09:40:47.619Z,86.5
2022-09-23T09:45:57.545Z,86.0
2022-09-23T09:50:59.923Z,86.0
2022-09-23T09:56:06.168Z,85.5
2022-09-23T10:01:12.383Z,85.0
2022-09-23T10:06:18.497Z,84.5
2022-09-23T10:11:24.707Z,84.5
2022-09-23T10:16:30.969Z,84.5
2022-09-23T10:21:37.122Z,84.5
2022-09-23T10:26:43.334Z,84.5
2022-09-23T10:31:49.538Z,83.5
2022-09-23T10:36:55.752Z,83.5
2022-09-23T10:42:01.958Z,82.0
2022-09-23T10:47:08.168Z,81.5
2022-09-23T10:52:14.386Z,80.5
2022-09-23T10:57:20.590Z,80.0
2022-09-23T11:02:26.802Z,80.0
2022-09-23T11:07:36.913Z,79.5
2022-09-23T11:12:39.225Z,79.0
2022-09-23T11:17:45.432Z,78.5
2022-09-23T11:22:50.671Z,78.5
2022-09-23T11:27:56.880Z,78.5
2022-09-23T11:38:08.328Z,77.0
2022-09-23T11:43:14.551Z,77.0
2022-09-23T11:48:20.746Z,77.0
2022-09-23T11:53:26.959Z,76.5
2022-09-23T11:58:33.237Z,76.0
2022-09-23T12:03:43.885Z,76.0
2022-09-23T12:08:45.588Z,75.5
2022-09-23T12:13:51.803Z,75.0
2022-09-23T12:18:58.006Z,74.5
2022-09-23T12:24:04.217Z,74.5
2022-09-23T12:29:10.423Z,74.0
2022-09-23T12:34:16.665Z,72.5
2022-09-23T12:39:22.853Z,72.0
2022-09-23T12:44:29.061Z,72.0
2022-09-23T12:49:35.261Z,71.5
2022-09-23T12:54:41.477Z,72.0
2022-09-23T12:59:47.684Z,72.0
2022-09-23T13:04:53.893Z,71.0
2022-09-23T13:10:00.129Z,71.0
2022-09-23T13:15:06.317Z,71.0
2022-09-23T13:20:11.546Z,70.5
2022-09-23T13:25:17.755Z,70.5
2022-09-23T13:30:26.142Z,70.5
2022-09-23T13:35:29.199Z,71.0
2022-09-23T13:40:35.485Z,71.0
2022-09-23T13:45:41.683Z,71.0
2022-09-23T13:50:47.829Z,71.0
2022-09-23T13:55:53.059Z,70.5
2022-09-23T14:00:59.354Z,70.5
2022-09-23T14:06:05.475Z,70.5
2022-09-23T14:11:11.689Z,70.0
2022-09-23T14:16:18.019Z,70.5
2022-09-23T14:21:24.105Z,70.5
2022-09-23T14:26:30.316Z,70.0
2022-09-23T14:31:36.549Z,70.5
2022-09-23T14:36:42.735Z,70.5
2022-09-23T14:41:48.942Z,71.0
2022-09-23T14:46:55.153Z,71.0
2022-09-23T14:52:01.361Z,71.0
2022-09-23T14:57:07.570Z,71.0
2022-09-23T15:02:13.784Z,71.5
2022-09-23T15:07:19.985Z,72.0
2022-09-23T15:12:26.209Z,72.0
2022-09-23T15:17:31.436Z,72.5
2022-09-23T15:22:37.639Z,72.5
2022-09-23T15:27:43.852Z,73.0
2022-09-23T15:32:50.069Z,73.0
2022-09-23T15:37:56.269Z,73.5
2022-09-23T15:43:02.510Z,73.5
2022-09-23T15:48:08.689Z,74.0
2022-09-23T15:53:14.899Z,74.0
2022-09-23T15:58:21.110Z,74.5
2022-09-23T16:03:27.325Z,74.5
2022-09-23T16:08:33.568Z,75.0
2022-09-23T16:13:39.737Z,75.5
2022-09-23T16:18:45.948Z,76.0
2022-09-23T16:23:52.149Z,76.5
2022-09-23T16:28:58.359Z,76.5
2022-09-23T16:34:04.564Z,76.5
2022-09-23T16:39:10.955Z,77.0
2022-09-23T16:44:16.988Z,77.0
2022-09-23T16:49:23.192Z,77.5
2022-09-23T16:54:29.406Z,78.0
2022-09-23T16:59:35.616Z,78.5
2022-09-23T17:04:40.848Z,78.5
2022-09-23T17:09:47.058Z,78.5
2022-09-23T17:14:53.266Z,79.0
2022-09-23T17:19:59.515Z,79.5
2022-09-23T17:25:05.685Z,79.5
2022-09-23T17:30:12.251Z,80.0
2022-09-23T17:35:18.117Z,80.5
2022-09-23T17:40:24.383Z,81.0
2022-09-23T17:45:30.542Z,81.5
2022-09-23T17:50:36.726Z,82.0
2022-09-23T17:55:42.939Z,82.5
2022-09-23T18:00:49.214Z,82.5
2022-09-23T18:05:55.354Z,83.0
2022-09-23T18:11:01.561Z,83.5
2022-09-23T18:16:07.846Z,83.5
2022-09-23T18:21:13.979Z,84.0
2022-09-23T18:26:20.188Z,84.5
2022-09-23T18:31:26.496Z,85.0
2022-09-23T18:36:32.611Z,85.0
2022-09-23T18:41:38.813Z,85.5
2022-09-23T18:46:45.021Z,86.0
2022-09-23T18:51:50.259Z,86.0
2022-09-23T18:56:56.482Z,86.0
2022-09-23T19:02:01.935Z,86.5
2022-09-23T19:07:07.915Z,87.0
2022-09-23T19:12:13.149Z,87.0
2022-09-23T19:17:19.352Z,87.5
2022-09-23T19:22:25.569Z,87.5
2022-09-23T19:27:31.768Z,87.5
2022-09-23T19:32:37.979Z,87.5
2022-09-23T19:37:44.183Z,88.0
2022-09-23T19:42:50.390Z,88.5
2022-09-23T19:47:56.603Z,88.5
2022-09-23T19:53:02.815Z,88.5
2022-09-23T19:58:09.022Z,89.0
2022-09-23T20:03:15.230Z,89.5
2022-09-23T20:08:21.447Z,89.5
2022-09-23T20:13:27.660Z,89.5
2022-09-23T20:18:33.851Z,90.0
2022-09-23T20:23:40.064Z,90.0
2022-09-23T20:28:46.274Z,90.0
2022-09-23T20:33:52.482Z,90.5
2022-09-23T20:38:58.694Z,90.5
2022-09-23T20:44:04.905Z,90.5
2022-09-23T20:49:11.110Z,91.0
2022-09-23T20:54:17.318Z,91.0
2022-09-23T20:59:22.559Z,91.0
2022-09-23T21:04:28.763Z,91.5
2022-09-23T21:09:33.999Z,91.5
2022-09-23T21:14:40.208Z,91.5
2022-09-23T21:19:46.420Z,92.0
2022-09-23T21:25:26.460Z,92.0
2022-09-23T21:29:58.840Z,92.0
2022-09-23T21:35:05.056Z,92.0
2022-09-23T21:40:11.350Z,92.5
2022-09-23T21:45:17.492Z,92.5
2022-09-23T21:50:23.711Z,92.5
2022-09-23T21:55:29.909Z,93.0
2022-09-23T22:00:36.231Z,93.0
2022-09-23T22:05:42.327Z,93.0
2022-09-23T22:10:48.538Z,93.0
2022-09-23T22:15:54.805Z,93.5
2022-09-23T22:21:00.976Z,93.5
2022-09-23T22:26:07.197Z,93.5
2022-09-23T22:31:13.440Z,93.5
2022-09-23T22:36:19.604Z,93.5
2022-09-23T22:41:25.818Z,93.5
2022-09-23T22:46:32.108Z,93.5
2022-09-23T22:51:38.240Z,94.0
2022-09-23T22:56:43.483Z,94.0
2022-09-23T23:01:49.815Z,94.0
2022-09-23T23:06:54.929Z,94.0
2022-09-23T23:12:01.156Z,94.0
2022-09-23T23:17:07.379Z,94.0
2022-09-23T23:22:13.581Z,94.0
2022-09-23T23:27:19.792Z,94.5
2022-09-23T23:32:26.000Z,94.5
2022-09-23T23:37:32.471Z,94.5
2022-09-23T23:42:38.431Z,94.5
2022-09-23T23:47:44.646Z,94.5
2022-09-23T23:52:50.875Z,94.5
2022-09-23T23:57:57.087Z,95.0
